Time;durP1;ratioP1;P1;durP2;ratioP2;P2;SDS_P1;SDS_P2;PMS_P1;PMS_P2;Temp;Humidity;BMP_temperature;BMP_pressure;BME280_temperature;BME280_humidity;BME280_pressure;Samples;Min_cycle;Max_cycle;Signal;HPM_P1;HPM_P2
2022/12/19 10:49:20;;;;;;;23.73;9.87;;;;;;;-1.94;72.33;102907.98;1753914;79;951503;-65
2022/12/19 10:51:59;;;;;;;21.75;8.48;;;;;;;-1.90;72.28;102909.63;1730293;82;21643;-64
2022/12/19 10:54:40;;;;;;;20.80;8.40;;;;;;;-1.87;72.19;102897.43;1725291;83;21235;-63
2022/12/19 10:57:28;;;;;;;27.58;8.93;;;;;;;-1.84;72.06;102896.44;1719295;83;21223;-63
2022/12/19 11:00:16;;;;;;;27.10;9.98;;;;;;;-1.82;71.99;102891.88;1722035;83;21117;-63
2022/12/19 11:05:49;;;;;;;20.00;7.55;;;;;;;-1.78;71.91;102882.30;1829838;77;22568;-62
2022/12/19 11:08:34;;;;;;;17.52;7.03;;;;;;;-1.79;71.85;102887.27;1701387;83;21544;-62
2022/12/19 11:11:09;;;;;;;16.37;6.83;;;;;;;-1.79;71.66;102888.61;1740164;82;21170;-62
2022/12/19 11:13:45;;;;;;;20.00;6.67;;;;;;;-1.79;71.51;102881.02;1720336;83;21757;-63
2022/12/19 11:16:25;;;;;;;22.82;8.80;;;;;;;-1.79;71.43;102876.98;1721210;82;21173;-62
2022/12/19 11:18:56;;;;;;;24.23;10.30;;;;;;;-1.78;71.62;102886.80;1695034;83;21567;-64
2022/12/19 11:21:30;;;;;;;28.87;10.32;;;;;;;-1.76;71.56;102891.19;1717595;83;21188;-64
2022/12/19 11:24:04;;;;;;;30.62;8.90;;;;;;;-1.75;71.49;102892.94;1717555;82;21152;-64
2022/12/19 11:26:45;;;;;;;18.20;8.63;;;;;;;-1.75;71.51;102898.31;1691301;83;21279;-63
2022/12/19 11:29:27;;;;;;;22.73;7.58;;;;;;;-1.72;71.52;102896.86;1717556;83;21326;-64
2022/12/19 11:32:01;;;;;;;19.55;7.33;;;;;;;-1.68;71.44;102901.18;1715986;83;21148;-63
2022/12/19 11:34:35;;;;;;;23.38;6.55;;;;;;;-1.66;71.33;102893.94;1717645;82;21129;-63
2022/12/19 11:37:31;;;;;;;20.82;7.83;;;;;;;-1.68;70.97;102891.77;1740123;82;21142;-64
2022/12/19 11:40:05;;;;;;;13.62;5.90;;;;;;;-1.72;70.73;102892.83;1699504;83;21589;-63
2022/12/19 11:42:39;;;;;;;16.32;6.97;;;;;;;-1.75;70.75;102887.56;1722551;83;21221;-63
2022/12/19 11:45:22;;;;;;;19.80;5.95;;;;;;;-1.72;70.81;102890.14;1706172;83;21185;-64
2022/12/19 11:48:03;;;;;;;16.37;6.65;;;;;;;-1.74;70.73;102892.00;1689630;83;21595;-66
2022/12/19 11:50:57;;;;;;;17.30;5.90;;;;;;;-1.74;70.69;102892.47;1697377;83;21133;-63
2022/12/19 11:53:31;;;;;;;12.60;5.08;;;;;;;-1.73;70.78;102897.79;1711563;83;21218;-64
2022/12/19 11:56:09;;;;;;;14.98;5.65;;;;;;;-1.72;70.70;102895.52;1722359;83;21135;-62
2022/12/19 11:58:40;;;;;;;16.73;5.85;;;;;;;-1.70;70.60;102890.95;1721609;83;21160;-62
2022/12/19 12:01:25;;;;;;;15.20;5.95;;;;;;;-1.69;70.70;102900.77;1722109;83;21166;-64
2022/12/19 12:04:25;;;;;;;16.73;5.25;;;;;;;-1.65;71.16;102901.06;1693139;83;21143;-63
2022/12/19 12:06:55;;;;;;;18.45;6.17;;;;;;;-1.61;70.78;102897.80;1781727;80;21127;-63
2022/12/19 12:09:57;;;;;;;17.60;5.97;;;;;;;-1.64;70.47;102894.75;1777996;80;21119;-63
2022/12/19 12:12:42;;;;;;;14.75;6.55;;;;;;;-1.65;70.67;102887.63;1749500;80;21105;-62
2022/12/19 12:15:36;;;;;;;16.32;5.70;;;;;;;-1.63;70.61;102891.13;1730884;82;21117;-62
2022/12/19 12:18:59;;;;;;;24.15;7.12;;;;;;;-1.63;70.59;102891.13;1748761;82;21152;-62
2022/12/19 12:21:37;;;;;;;18.75;7.03;;;;;;;-1.61;70.61;102887.04;1749134;82;21116;-64
2022/12/19 12:24:25;;;;;;;10.13;4.70;;;;;;;-1.57;70.71;102890.48;1747880;82;21172;-63
2022/12/19 12:27:20;;;;;;;23.98;6.15;;;;;;;-1.56;70.59;102891.77;1752703;81;21869;-64
2022/12/19 12:30:05;;;;;;;13.93;5.90;;;;;;;-1.58;70.30;102892.30;1752281;81;21192;-62
2022/12/19 12:32:59;;;;;;;15.68;5.97;;;;;;;-1.60;70.37;102889.67;1753083;81;21572;-64
2022/12/19 12:35:38;;;;;;;13.88;5.70;;;;;;;-1.60;70.21;102892.36;1749086;82;21218;-63
2022/12/19 12:38:41;;;;;;;15.08;6.42;;;;;;;-1.61;70.20;102891.08;1714894;82;21120;-63
2022/12/19 12:44:25;;;;;;;19.07;6.12;;;;;;;-1.59;70.34;102890.55;1730696;80;21130;-66
2022/12/19 12:47:06;;;;;;;17.23;6.78;;;;;;;-1.56;70.45;102883.71;1780476;80;21568;-63
2022/12/19 12:49:43;;;;;;;19.00;7.08;;;;;;;-1.53;70.50;102885.41;1714233;84;21604;-62
2022/12/19 12:52:28;;;;;;;19.00;7.83;;;;;;;-1.50;70.46;102881.25;1776630;80;21118;-63
2022/12/19 12:54:57;;;;;;;23.50;9.35;;;;;;;-1.52;70.37;102881.78;1714471;83;21143;-65
2022/12/19 12:57:34;;;;;;;22.93;9.80;;;;;;;-1.52;70.48;102880.44;1780789;80;21111;-64
2022/12/19 13:00:26;;;;;;;29.57;12.15;;;;;;;-1.53;70.50;102878.69;1781113;80;21119;-63
2022/12/19 13:03:14;;;;;;;26.12;11.93;;;;;;;-1.57;70.56;102877.05;1714335;84;21147;-62
2022/12/19 13:06:26;;;;;;;24.67;10.88;;;;;;;-1.59;70.64;102869.04;1773883;80;21098;-63
2022/12/19 13:09:14;;;;;;;25.88;10.15;;;;;;;-1.60;70.70;102862.78;1773049;80;21390;-63
2022/12/19 13:14:41;;;;;;;27.90;10.90;;;;;;;-1.65;71.39;102860.75;1706728;84;21107;-63
2022/12/19 13:17:34;;;;;;;28.70;13.30;;;;;;;-1.64;71.52;102869.69;1772959;81;21657;-65
2022/12/19 13:20:11;;;;;;;26.57;9.58;;;;;;;-1.66;71.40;102868.87;1709537;83;21158;-64
2022/12/19 13:23:04;;;;;;;24.15;9.35;;;;;;;-1.70;71.21;102864.08;1772739;81;21123;-63
2022/12/19 13:25:39;;;;;;;22.17;8.68;;;;;;;-1.74;71.20;102861.56;1721810;81;21130;-64
2022/12/19 13:28:27;;;;;;;20.95;8.55;;;;;;;-1.77;71.20;102863.02;1772767;81;21166;-63
2022/12/19 13:31:11;;;;;;;24.75;9.23;;;;;;;-1.80;71.16;102856.42;1772792;81;21151;-63
2022/12/19 13:33:56;;;;;;;28.52;10.68;;;;;;;-1.85;71.22;102849.88;1771621;81;21150;-63
2022/12/19 13:36:53;;;;;;;23.80;9.33;;;;;;;-1.86;71.32;102849.94;1771967;81;21601;-65
2022/12/19 13:39:34;;;;;;;16.60;6.92;;;;;;;-1.88;71.40;102854.48;1768444;81;21143;-65
2022/12/19 13:45:10;;;;;;;35.90;16.52;;;;;;;-2.00;71.53;102855.80;1772896;81;21170;-64
2022/12/19 13:47:42;;;;;;;34.27;16.70;;;;;;;-2.04;71.75;102851.00;1767947;81;21570;-64
2022/12/19 13:50:40;;;;;;;36.98;15.45;;;;;;;-2.07;71.85;102848.89;1710076;84;21182;-65
2022/12/19 13:53:17;;;;;;;35.73;15.45;;;;;;;-2.08;71.95;102845.80;1772924;81;21127;-64
2022/12/19 13:55:49;;;;;;;34.65;14.53;;;;;;;-2.12;72.07;102844.16;1773274;80;21108;-63
2022/12/19 13:58:25;;;;;;;31.48;12.73;;;;;;;-2.14;72.25;102848.24;1772853;81;21111;-63
2022/12/19 14:01:01;;;;;;;25.92;10.85;;;;;;;-2.17;72.33;102842.11;1730142;81;21119;-63
2022/12/19 14:03:40;;;;;;;26.30;10.80;;;;;;;-2.18;72.42;102845.73;1706608;84;21583;-64
2022/12/19 14:06:24;;;;;;;30.32;10.30;;;;;;;-2.21;72.50;102850.74;1758437;81;21179;-65
2022/12/19 14:09:00;;;;;;;22.37;9.55;;;;;;;-2.24;72.60;102849.52;1750212;82;21559;-65
2022/12/19 14:11:30;;;;;;;24.70;10.30;;;;;;;-2.27;72.71;102851.84;1747874;80;21616;-65
2022/12/19 14:16:51;;;;;;;27.65;10.40;;;;;;;-2.25;72.85;102848.63;1749414;81;21158;-65
2022/12/19 14:19:24;;;;;;;26.90;11.05;;;;;;;-2.30;72.81;102848.39;1750028;81;21104;-65
2022/12/19 14:21:53;;;;;;;30.60;12.25;;;;;;;-2.37;72.96;102845.05;1750175;81;21195;-64
2022/12/19 14:24:24;;;;;;;29.18;11.97;;;;;;;-2.43;73.20;102849.76;1747369;81;21135;-64
2022/12/19 14:26:59;;;;;;;25.23;11.28;;;;;;;-2.47;73.48;102844.97;1750142;82;21101;-63
2022/12/19 14:29:35;;;;;;;27.77;12.68;;;;;;;-2.49;73.69;102844.14;1735280;82;21164;-65
2022/12/19 14:32:07;;;;;;;21.90;9.57;;;;;;;-2.47;73.76;102840.94;1737732;82;21210;-65
2022/12/19 14:34:39;;;;;;;27.85;11.83;;;;;;;-2.45;73.94;102842.22;1702295;83;21160;-65
2022/12/19 14:37:32;;;;;;;34.20;13.03;;;;;;;-2.43;73.97;102843.92;1741179;82;21575;-66
2022/12/19 14:40:20;;;;;;;33.18;13.05;;;;;;;-2.40;73.95;102845.62;1749605;82;21132;-64
2022/12/19 14:45:41;;;;;;;32.23;12.33;;;;;;;-2.40;73.97;102837.10;1748822;82;21148;-64
2022/12/19 14:48:32;;;;;;;31.12;12.15;;;;;;;-2.37;74.08;102841.48;1754448;81;21120;-63
2022/12/19 14:51:12;;;;;;;27.75;12.63;;;;;;;-2.36;74.09;102848.14;1748462;80;21117;-64
2022/12/19 14:54:14;;;;;;;31.68;13.13;;;;;;;-2.35;74.07;102849.90;1749648;81;21117;-66
2022/12/19 14:56:52;;;;;;;31.40;13.68;;;;;;;-2.39;74.02;102850.06;1749727;82;21121;-64
2022/12/19 14:59:34;;;;;;;32.48;12.47;;;;;;;-2.46;74.06;102844.03;1732808;82;21124;-65
2022/12/19 15:02:09;;;;;;;36.98;13.62;;;;;;;-2.52;74.27;102846.93;1738837;80;21172;-67
2022/12/19 15:04:45;;;;;;;32.13;11.57;;;;;;;-2.53;74.41;102846.52;1726869;81;21287;-65
2022/12/19 15:07:20;;;;;;;34.27;15.05;;;;;;;-2.58;74.42;102834.60;1756154;81;21121;-66
2022/12/19 15:09:58;;;;;;;43.15;16.07;;;;;;;-2.65;74.54;102833.50;1757156;80;21150;-66
2022/12/19 15:15:47;;;;;;;44.58;16.45;;;;;;;-2.82;74.96;102826.49;1754483;82;21131;-65
2022/12/19 15:18:37;;;;;;;41.15;17.82;;;;;;;-2.96;75.38;102825.63;1757037;82;21103;-64
2022/12/19 15:21:11;;;;;;;53.08;20.10;;;;;;;-3.02;76.73;102821.34;1757092;80;21534;-64
2022/12/19 15:23:43;;;;;;;65.12;22.95;;;;;;;-3.02;76.78;102824.02;1756965;82;21146;-63
2022/12/19 15:26:16;;;;;;;51.45;20.55;;;;;;;-3.07;76.62;102820.61;1757011;82;21114;-63
2022/12/19 15:28:49;;;;;;;45.83;18.55;;;;;;;-3.10;76.77;102827.88;1740278;82;21131;-64
2022/12/19 15:31:37;;;;;;;38.13;15.93;;;;;;;-3.09;76.98;102825.62;1756987;80;21158;-63
2022/12/19 15:34:28;;;;;;;38.20;16.32;;;;;;;-3.04;77.14;102823.20;1757195;82;21154;-64
2022/12/19 15:36:59;;;;;;;36.77;14.90;;;;;;;-3.00;77.15;102822.16;1778571;80;21107;-63
2022/12/19 15:39:29;;;;;;;38.80;15.45;;;;;;;-2.94;77.14;102827.33;1788025;79;21213;-63
2022/12/19 15:41:59;;;;;;;41.15;16.55;;;;;;;-2.91;77.05;102825.88;1788242;79;21535;-64
2022/12/19 15:44:35;;;;;;;37.78;14.58;;;;;;;-2.83;77.09;102828.77;1731279;82;21547;-60
2022/12/19 15:47:08;;;;;;;38.40;15.75;;;;;;;-2.82;76.81;102829.17;1726455;82;21589;-65
2022/12/19 15:49:37;;;;;;;37.65;14.60;;;;;;;-2.83;76.77;102832.79;1703370;83;21565;-63
2022/12/19 15:52:17;;;;;;;50.15;19.17;;;;;;;-2.83;76.75;102841.72;1726462;83;21621;-64
2022/12/19 15:54:46;;;;;;;39.98;16.70;;;;;;;-2.85;76.68;102830.63;1726519;83;21194;-63
2022/12/19 15:57:37;;;;;;;47.23;17.32;;;;;;;-2.93;76.50;102826.39;1726243;83;21151;-62
2022/12/19 16:00:12;;;;;;;42.17;16.52;;;;;;;-2.97;77.23;102827.42;1726407;83;21152;-63
2022/12/19 16:02:42;;;;;;;44.13;17.67;;;;;;;-2.96;78.28;102827.84;1757963;80;21129;-63
2022/12/19 16:05:15;;;;;;;40.73;16.97;;;;;;;-2.97;78.57;102823.41;1784118;80;21137;-65
2022/12/19 16:07:44;;;;;;;38.10;17.27;;;;;;;-2.93;79.15;102825.52;1779906;80;21094;-64
2022/12/19 16:10:13;;;;;;;40.40;17.30;;;;;;;-2.94;78.93;102823.30;1780196;80;21102;-64
2022/12/19 16:12:54;;;;;;;46.75;18.20;;;;;;;-3.02;78.38;102825.36;1780190;80;21122;-64
2022/12/19 16:15:32;;;;;;;39.80;16.52;;;;;;;-3.12;77.92;102827.06;1749802;80;21133;-64
2022/12/19 16:18:08;;;;;;;46.10;17.17;;;;;;;-3.29;77.67;102834.28;1780090;80;21561;-63
2022/12/19 16:20:36;;;;;;;42.60;17.45;;;;;;;-3.39;77.76;102835.03;1751156;80;21082;-63
2022/12/19 16:23:05;;;;;;;40.92;17.98;;;;;;;-3.39;78.98;102832.81;1780065;80;21169;-64
2022/12/19 16:25:49;;;;;;;41.10;17.85;;;;;;;-3.42;78.63;102839.16;1779893;79;21110;-64
2022/12/19 16:28:32;;;;;;;39.15;15.25;;;;;;;-3.53;78.36;102844.84;1780080;80;21133;-64
2022/12/19 16:31:15;;;;;;;32.53;14.65;;;;;;;-3.65;78.36;102837.19;1752310;80;21585;-64
2022/12/19 16:33:47;;;;;;;34.63;15.53;;;;;;;-3.76;78.43;102832.62;1779874;80;21533;-63
2022/12/19 16:36:18;;;;;;;41.35;15.93;;;;;;;-3.87;78.50;102832.06;1737775;81;21157;-62
2022/12/19 16:38:47;;;;;;;39.70;16.65;;;;;;;-3.93;78.82;102823.72;1728463;82;21547;-64
2022/12/19 16:41:24;;;;;;;37.45;16.15;;;;;;;-3.96;78.98;102821.12;1728219;83;21105;-63
2022/12/19 16:43:56;;;;;;;36.58;16.25;;;;;;;-3.94;79.25;102818.41;1742186;80;21541;-64
2022/12/19 16:46:29;;;;;;;41.25;16.77;;;;;;;-3.95;79.36;102825.56;1779774;80;21126;-64
2022/12/19 16:49:02;;;;;;;38.98;16.48;;;;;;;-4.01;79.37;102823.06;1779753;80;21094;-63
2022/12/19 16:51:31;;;;;;;39.90;17.25;;;;;;;-4.03;79.50;102829.39;1779596;79;21585;-64
2022/12/19 16:54:09;;;;;;;38.58;16.07;;;;;;;-4.05;79.66;102823.20;1779743;80;21165;-65
2022/12/19 16:56:49;;;;;;;45.78;16.07;;;;;;;-4.08;79.80;102823.29;1779818;80;21137;-64
2022/12/19 16:59:28;;;;;;;39.33;15.88;;;;;;;-4.08;80.56;102820.15;1779844;80;21592;-65
2022/12/19 17:01:57;;;;;;;46.42;16.17;;;;;;;-4.05;80.37;102809.81;1780278;80;21462;-63
2022/12/19 17:04:29;;;;;;;41.33;16.97;;;;;;;-4.09;80.18;102804.12;1780289;80;21122;-65
2022/12/19 17:07:00;;;;;;;39.27;15.18;;;;;;;-4.10;80.21;102809.95;1783492;80;21507;-64
2022/12/19 17:09:30;;;;;;;38.80;15.72;;;;;;;-4.11;80.07;102804.63;1788386;80;21576;-64
2022/12/19 17:12:00;;;;;;;38.60;16.35;;;;;;;-4.16;80.00;102801.63;1788248;80;21569;-64
2022/12/19 17:14:30;;;;;;;37.75;14.73;;;;;;;-4.17;80.10;102793.64;1788669;80;21619;-65
2022/12/19 17:17:00;;;;;;;40.12;16.35;;;;;;;-4.13;80.36;102792.63;1788226;80;21083;-64
2022/12/19 17:19:36;;;;;;;49.13;19.90;;;;;;;-4.06;80.44;102791.99;1788179;80;21563;-64
2022/12/19 17:22:15;;;;;;;44.77;17.40;;;;;;;-3.99;80.57;102774.36;1788470;80;21671;-64
2022/12/19 17:24:45;;;;;;;66.75;23.87;;;;;;;-3.90;80.72;102777.25;1771642;80;21433;-64
2022/12/19 17:27:16;;;;;;;68.75;23.20;;;;;;;-3.82;80.66;102775.22;1788221;80;21139;-62
2022/12/19 17:29:45;;;;;;;62.17;21.82;;;;;;;-3.78;80.61;102771.98;1788418;80;21143;-65
2022/12/19 17:32:15;;;;;;;58.85;20.92;;;;;;;-3.79;80.48;102772.44;1788424;79;21174;-64
2022/12/19 17:34:46;;;;;;;50.10;18.98;;;;;;;-3.79;80.24;102762.19;1787606;79;21099;-64
2022/12/19 17:37:16;;;;;;;47.48;16.73;;;;;;;-3.81;80.16;102764.91;1788246;80;21523;-64
2022/12/19 17:39:45;;;;;;;51.13;18.07;;;;;;;-3.81;80.11;102766.72;1788335;80;21111;-64
2022/12/19 17:42:20;;;;;;;38.30;14.55;;;;;;;-3.81;80.12;102759.55;1788616;80;21123;-63
2022/12/19 17:44:50;;;;;;;36.75;15.15;;;;;;;-3.77;80.18;102753.64;1788423;80;21565;-64
2022/12/19 17:47:19;;;;;;;37.23;15.35;;;;;;;-3.75;80.40;102758.02;1788496;80;21107;-63
2022/12/19 17:49:49;;;;;;;34.25;15.20;;;;;;;-3.73;80.55;102744.13;1770583;80;21142;-63
2022/12/19 17:52:19;;;;;;;34.75;15.53;;;;;;;-3.70;80.60;102753.40;1788273;80;21075;-63
2022/12/19 17:54:47;;;;;;;33.75;15.65;;;;;;;-3.66;80.61;102754.18;1770850;80;21158;-63
2022/12/19 17:57:17;;;;;;;35.85;17.55;;;;;;;-3.64;80.63;102755.00;1788369;80;21107;-64
2022/12/19 17:59:46;;;;;;;44.20;22.48;;;;;;;-3.66;80.60;102753.72;1788605;80;21099;-64
2022/12/19 18:02:25;;;;;;;44.38;23.67;;;;;;;-3.67;80.56;102758.66;1788708;80;21142;-65
2022/12/19 18:04:57;;;;;;;43.55;21.42;;;;;;;-3.70;80.61;102746.70;1788247;80;21507;-62
2022/12/19 18:07:27;;;;;;;37.25;16.67;;;;;;;-3.67;80.65;102755.98;1788244;80;21178;-64
2022/12/19 18:09:56;;;;;;;38.88;17.70;;;;;;;-3.66;80.63;102752.37;1788217;79;21515;-63
2022/12/19 18:12:25;;;;;;;37.03;15.90;;;;;;;-3.64;80.62;102753.20;1788234;80;21151;-63
2022/12/19 18:14:55;;;;;;;34.88;14.95;;;;;;;-3.60;80.54;102748.63;1788272;80;21142;-63
2022/12/19 18:17:24;;;;;;;39.05;15.85;;;;;;;-3.61;80.50;102755.78;1788220;80;21118;-63
2022/12/19 18:19:53;;;;;;;37.13;16.40;;;;;;;-3.59;80.54;102757.08;1788387;80;21619;-63
2022/12/19 18:22:23;;;;;;;34.10;15.20;;;;;;;-3.63;80.57;102752.28;1788242;79;21107;-63
2022/12/19 18:24:52;;;;;;;35.35;16.32;;;;;;;-3.63;80.70;102759.44;1788215;80;21166;-64
2022/12/19 18:27:21;;;;;;;36.80;15.43;;;;;;;-3.64;80.72;102755.00;1788331;80;21564;-65
2022/12/19 18:29:50;;;;;;;35.03;15.03;;;;;;;-3.68;80.76;102750.67;1788291;80;21173;-62
2022/12/19 18:32:21;;;;;;;36.85;16.73;;;;;;;-3.74;80.86;102747.72;1788340;79;21103;-62
2022/12/19 18:34:50;;;;;;;33.05;14.43;;;;;;;-3.78;80.97;102744.73;1788442;80;21181;-64
2022/12/19 18:37:20;;;;;;;40.78;15.30;;;;;;;-3.83;81.07;102739.98;1788257;80;21151;-63
2022/12/19 18:39:54;;;;;;;37.53;15.28;;;;;;;-3.86;81.16;102739.61;1788431;80;21104;-63
2022/12/19 18:42:22;;;;;;;44.67;16.95;;;;;;;-3.86;81.33;102739.61;1788363;80;21115;-63
2022/12/19 18:44:53;;;;;;;39.88;16.27;;;;;;;-3.86;81.44;102730.70;1788238;80;21403;-63
2022/12/19 18:47:24;;;;;;;40.50;16.87;;;;;;;-3.87;81.47;102712.88;1788259;80;21071;-64
2022/12/19 18:49:54;;;;;;;44.70;17.77;;;;;;;-3.88;81.57;102716.48;1788273;80;21111;-63
2022/12/19 18:52:25;;;;;;;41.02;17.70;;;;;;;-3.91;81.61;102716.55;1788550;80;21099;-63
2022/12/19 18:54:55;;;;;;;39.23;16.75;;;;;;;-3.92;81.63;102718.81;1788494;80;21190;-62
2022/12/19 18:57:25;;;;;;;42.65;17.35;;;;;;;-3.95;81.70;102715.77;1788128;80;21116;-63
2022/12/19 18:59:54;;;;;;;44.33;18.17;;;;;;;-3.98;81.77;102718.54;1760029;80;21178;-64
2022/12/19 19:02:25;;;;;;;51.73;19.00;;;;;;;-4.00;81.89;102719.52;1787686;80;21491;-63
2022/12/19 19:04:55;;;;;;;61.95;23.52;;;;;;;-4.03;81.99;102712.91;1707037;84;21115;-64
2022/12/19 19:07:29;;;;;;;40.58;16.67;;;;;;;-4.03;82.08;102709.77;1704797;84;21556;-64
2022/12/19 19:09:58;;;;;;;39.53;16.17;;;;;;;-4.05;82.18;102716.10;1701919;84;21114;-63
2022/12/19 19:12:32;;;;;;;36.03;15.83;;;;;;;-4.07;82.26;102710.80;1699536;84;21136;-64
2022/12/19 19:15:02;;;;;;;42.20;16.95;;;;;;;-4.09;82.38;102715.78;1701810;83;21127;-63
2022/12/19 19:17:30;;;;;;;39.88;15.58;;;;;;;-4.11;82.49;102717.63;1701639;84;21138;-64
2022/12/19 19:20:01;;;;;;;32.75;14.73;;;;;;;-4.11;82.60;102710.94;1701770;84;21131;-63
2022/12/19 19:22:31;;;;;;;38.92;15.70;;;;;;;-4.13;82.71;102696.26;1722018;81;21251;-62
2022/12/19 19:25:00;;;;;;;37.05;16.23;;;;;;;-4.12;82.87;102689.98;1774649;81;21527;-62
2022/12/19 19:27:30;;;;;;;39.63;17.92;;;;;;;-4.14;82.92;102697.19;1774430;81;21100;-62
2022/12/19 19:29:59;;;;;;;41.92;17.62;;;;;;;-4.18;83.00;102694.19;1774715;81;21115;-62
2022/12/19 19:32:29;;;;;;;39.35;16.90;;;;;;;-4.19;83.12;102691.97;1774594;80;21147;-63
2022/12/19 19:34:59;;;;;;;39.45;16.52;;;;;;;-4.20;83.19;102690.68;1774355;81;21076;-63
2022/12/19 19:37:29;;;;;;;39.83;17.20;;;;;;;-4.22;83.26;102692.06;1774320;80;21625;-63
2022/12/19 19:39:58;;;;;;;40.20;17.85;;;;;;;-4.23;83.35;102698.34;1774485;81;21091;-64
2022/12/19 19:42:27;;;;;;;39.83;17.75;;;;;;;-4.23;83.44;102697.47;1774514;81;21159;-63
2022/12/19 19:44:56;;;;;;;43.40;17.37;;;;;;;-4.24;83.58;102691.23;1774721;79;21131;-64
2022/12/19 19:47:34;;;;;;;39.48;16.02;;;;;;;-4.24;83.62;102692.58;1774540;80;21146;-64
2022/12/19 19:50:04;;;;;;;38.20;15.53;;;;;;;-4.23;83.64;102694.79;1774315;79;21551;-63
2022/12/19 19:52:33;;;;;;;35.68;15.68;;;;;;;-4.24;83.69;102689.90;1774646;80;21157;-64
2022/12/19 19:55:04;;;;;;;41.15;17.05;;;;;;;-4.23;83.71;102691.66;1774782;81;21527;-64
2022/12/19 19:57:35;;;;;;;39.80;16.05;;;;;;;-4.28;83.83;102692.71;1774640;81;21134;-63
2022/12/19 20:00:06;;;;;;;38.88;15.55;;;;;;;-4.28;83.83;102692.71;1774711;81;21629;-62
2022/12/19 20:02:38;;;;;;;40.43;15.68;;;;;;;-4.26;83.77;102686.39;1774470;79;21540;-62
2022/12/19 20:05:09;;;;;;;37.13;16.75;;;;;;;-4.26;83.77;102686.39;1774517;81;21104;-63
2022/12/19 20:07:38;;;;;;;39.67;16.75;;;;;;;-4.27;83.79;102689.99;1774441;80;21159;-63
2022/12/19 20:10:10;;;;;;;39.13;16.90;;;;;;;-4.25;83.94;102693.95;1774523;81;21108;-63
2022/12/19 20:12:39;;;;;;;47.27;18.02;;;;;;;-4.26;83.91;102694.42;1763751;81;21127;-62
2022/12/19 20:15:08;;;;;;;39.75;16.60;;;;;;;-4.27;83.88;102693.12;1774497;81;21087;-63
2022/12/19 20:17:39;;;;;;;38.38;16.35;;;;;;;-4.27;83.90;102688.66;1774457;81;21563;-62
2022/12/19 20:20:11;;;;;;;40.48;16.60;;;;;;;-4.27;83.93;102688.66;1763912;81;21104;-64
2022/12/19 20:22:41;;;;;;;41.28;17.20;;;;;;;-4.29;83.87;102682.94;1763868;81;21119;-62
2022/12/19 20:25:10;;;;;;;39.23;16.55;;;;;;;-4.31;83.78;102681.64;1763692;81;21179;-63
2022/12/19 20:27:41;;;;;;;39.25;16.48;;;;;;;-4.30;83.70;102698.11;1763911;81;21108;-63
2022/12/19 20:30:12;;;;;;;43.52;16.85;;;;;;;-4.31;83.71;102688.80;1774601;79;21596;-61
2022/12/19 20:32:42;;;;;;;38.70;16.35;;;;;;;-4.30;83.77;102683.86;1763833;81;21104;-62
2022/12/19 20:35:11;;;;;;;38.73;16.12;;;;;;;-4.31;83.72;102675.41;1774621;79;21568;-63
2022/12/19 20:37:43;;;;;;;38.17;16.60;;;;;;;-4.32;83.71;102659.81;1746785;81;21107;-63
2022/12/19 20:40:14;;;;;;;38.73;16.32;;;;;;;-4.31;83.75;102662.91;1774500;81;21143;-61
2022/12/19 20:42:43;;;;;;;37.08;16.48;;;;;;;-4.31;83.75;102662.91;1774461;81;21143;-62
2022/12/19 20:45:13;;;;;;;40.70;17.07;;;;;;;-4.29;83.70;102657.05;1774536;81;21115;-61
2022/12/19 20:47:42;;;;;;;44.70;18.82;;;;;;;-4.26;83.58;102649.38;1774709;81;21218;-62
2022/12/19 20:50:13;;;;;;;49.25;18.45;;;;;;;-4.26;83.38;102646.24;1774743;81;21128;-63
2022/12/19 20:52:43;;;;;;;59.27;20.90;;;;;;;-4.26;83.20;102649.38;1774512;81;21195;-64
2022/12/19 20:55:14;;;;;;;57.90;23.00;;;;;;;-4.29;83.03;102647.68;1774673;80;21131;-63
2022/12/19 20:57:44;;;;;;;61.50;23.02;;;;;;;-4.32;82.89;102647.77;1774616;81;21080;-62
2022/12/19 21:00:16;;;;;;;60.05;23.12;;;;;;;-4.35;82.72;102647.87;1774424;81;21134;-61
2022/12/19 21:02:46;;;;;;;53.35;22.35;;;;;;;-4.36;82.67;102639.42;1774396;81;21143;-62
2022/12/19 21:05:19;;;;;;;63.15;25.00;;;;;;;-4.38;82.65;102627.89;1773107;81;21136;-62
2022/12/19 21:07:49;;;;;;;45.85;21.05;;;;;;;-4.41;82.28;102623.09;1764929;80;21280;-62
2022/12/19 21:10:19;;;;;;;68.20;27.17;;;;;;;-4.46;82.31;102625.92;1779545;80;21148;-62
2022/12/19 21:12:48;;;;;;;85.10;32.60;;;;;;;-4.45;82.33;102627.67;1774711;81;21539;-62
2022/12/19 21:15:18;;;;;;;70.45;29.37;;;;;;;-4.46;82.18;102623.23;1774609;81;21115;-62
2022/12/19 21:17:47;;;;;;;63.30;27.42;;;;;;;-4.48;82.07;102630.44;1763728;81;21139;-61
2022/12/19 21:20:17;;;;;;;63.00;25.12;;;;;;;-4.52;81.93;102624.77;1774651;81;21151;-62
2022/12/19 21:22:46;;;;;;;58.02;22.80;;;;;;;-4.52;81.83;102627.44;1774443;81;21111;-63
2022/12/19 21:25:15;;;;;;;51.05;21.68;;;;;;;-4.62;81.58;102624.59;1774355;81;21112;-61
2022/12/19 21:27:45;;;;;;;45.92;19.87;;;;;;;-4.69;81.55;102627.04;1774420;79;21166;-62
2022/12/19 21:30:15;;;;;;;36.23;14.78;;;;;;;-4.76;81.68;102620.13;1774795;81;21504;-63
2022/12/19 21:32:45;;;;;;;41.35;15.90;;;;;;;-4.78;81.74;102622.84;1774679;80;21087;-63
2022/12/19 21:35:15;;;;;;;33.88;14.38;;;;;;;-4.74;82.08;102621.83;1774662;81;21107;-61
2022/12/19 21:37:48;;;;;;;35.58;13.85;;;;;;;-4.72;82.29;102609.75;1774406;81;21555;-65
2022/12/19 21:40:16;;;;;;;39.13;15.70;;;;;;;-4.60;82.56;102605.36;1746898;81;21194;-62
2022/12/19 21:42:46;;;;;;;49.30;19.27;;;;;;;-4.60;82.56;102605.36;1764034;81;21115;-63
2022/12/19 21:45:16;;;;;;;47.48;19.50;;;;;;;-4.57;82.42;102601.26;1774654;81;21139;-62
2022/12/19 21:47:46;;;;;;;58.35;21.60;;;;;;;-4.56;82.19;102594.98;1774305;80;21080;-62
2022/12/19 21:50:15;;;;;;;67.67;27.93;;;;;;;-4.59;81.97;102590.61;1774390;81;21116;-64
2022/12/19 21:52:44;;;;;;;66.47;27.67;;;;;;;-4.69;81.65;102589.13;1774432;79;21527;-61
2022/12/19 21:55:13;;;;;;;61.45;25.23;;;;;;;-4.76;81.43;102584.89;1774482;81;21120;-62
2022/12/19 21:57:42;;;;;;;63.87;25.50;;;;;;;-4.85;81.34;102578.02;1774657;80;21099;-62
2022/12/19 22:00:13;;;;;;;59.05;22.85;;;;;;;-4.89;81.30;102570.14;1774490;81;21174;-62
2022/12/19 22:02:42;;;;;;;65.12;23.57;;;;;;;-4.97;81.22;102566.82;1763702;81;21104;-62
2022/12/19 22:05:14;;;;;;;59.48;23.80;;;;;;;-5.09;80.99;102557.36;1772812;81;21559;-61
2022/12/19 22:07:43;;;;;;;62.23;23.85;;;;;;;-5.21;81.13;102557.69;1763977;81;21230;-62
2022/12/19 22:10:14;;;;;;;59.20;22.30;;;;;;;-5.29;81.29;102563.70;1774686;80;21108;-61
2022/12/19 22:12:43;;;;;;;61.10;23.10;;;;;;;-5.30;81.75;102564.63;1774439;81;21135;-60
2022/12/19 22:15:13;;;;;;;52.03;20.23;;;;;;;-5.30;81.75;102564.63;1774478;81;21128;-61
2022/12/19 22:17:42;;;;;;;45.63;18.52;;;;;;;-5.28;81.68;102549.43;1774412;81;21145;-60
2022/12/19 22:20:13;;;;;;;46.50;18.62;;;;;;;-5.29;81.67;102549.02;1774614;81;21131;-61
2022/12/19 22:22:42;;;;;;;46.98;18.00;;;;;;;-5.36;81.88;102535.42;1774766;81;21142;-62
2022/12/19 22:25:11;;;;;;;45.48;18.40;;;;;;;-5.36;81.88;102535.42;1774405;81;21170;-66
2022/12/19 22:27:40;;;;;;;43.23;17.23;;;;;;;-5.38;81.88;102535.46;1746542;81;21205;-62
2022/12/19 22:30:10;;;;;;;42.38;15.93;;;;;;;-5.39;81.90;102536.38;1774420;80;21107;-63
2022/12/19 22:32:40;;;;;;;43.52;15.53;;;;;;;-5.37;81.96;102533.66;1763797;81;21115;-62
2022/12/19 22:35:09;;;;;;;39.45;15.23;;;;;;;-5.37;81.96;102533.66;1774529;81;21139;-61
2022/12/19 22:37:38;;;;;;;39.75;14.78;;;;;;;-5.36;82.01;102528.28;1774379;81;21147;-62
2022/12/19 22:40:09;;;;;;;33.45;13.50;;;;;;;-5.32;81.94;102531.73;1774561;81;21131;-61
2022/12/19 22:42:39;;;;;;;37.93;13.75;;;;;;;-5.33;81.92;102529.98;1746764;81;21143;-62
2022/12/19 22:45:09;;;;;;;33.70;13.30;;;;;;;-5.33;81.92;102529.98;1774624;81;21155;-62
2022/12/19 22:47:41;;;;;;;30.30;11.97;;;;;;;-5.30;81.85;102525.89;1774472;80;21108;-61
2022/12/19 22:50:10;;;;;;;37.08;14.65;;;;;;;-5.26;81.83;102524.87;1774382;81;21605;-62
2022/12/19 22:52:39;;;;;;;36.95;15.10;;;;;;;-5.18;81.77;102510.41;1774499;81;21155;-63
2022/12/19 22:55:09;;;;;;;27.58;11.33;;;;;;;-5.14;81.54;102507.18;1774304;80;21127;-62